Time;durP1;ratioP1;P1;durP2;ratioP2;P2;SDS_P1;SDS_P2;PMS_P1;PMS_P2;Temp;Humidity;BMP_temperature;BMP_pressure;BME280_temperature;BME280_humidity;BME280_pressure;Samples;Min_cycle;Max_cycle;Signal;HPM_P1;HPM_P2
2021/01/04 00:00:23;;;;;;;12.97;6.97;;;1.90;99.90;;;;;;5061801;28;20217;-57
2021/01/04 00:03:07;;;;;;;13.87;6.37;;;2.00;99.90;;;;;;5062856;28;20289;-59
2021/01/04 00:05:39;;;;;;;9.97;6.13;;;1.90;99.90;;;;;;5063801;28;20302;-56
2021/01/04 00:08:34;;;;;;;13.03;7.37;;;1.90;99.90;;;;;;5063727;28;20234;-57
2021/01/04 00:11:25;;;;;;;12.90;6.97;;;1.90;99.90;;;;;;5064581;28;20202;-55
2021/01/04 00:14:02;;;;;;;12.87;6.50;;;1.90;99.90;;;;;;5064978;28;20210;-58
2021/01/04 00:16:39;;;;;;;14.03;7.23;;;1.90;99.90;;;;;;5065368;28;20198;-53
2021/01/04 00:19:13;;;;;;;14.20;7.87;;;1.90;99.90;;;;;;5065532;28;20217;-59
2021/01/04 00:21:52;;;;;;;13.07;6.67;;;1.90;99.90;;;;;;5063947;28;20212;-57
2021/01/04 00:24:25;;;;;;;14.43;7.73;;;1.90;99.90;;;;;;5063013;28;20226;-58
2021/01/04 00:26:58;;;;;;;12.07;6.70;;;1.90;99.90;;;;;;5065310;28;20206;-55
2021/01/04 00:29:24;;;;;;;13.97;7.20;;;1.90;99.90;;;;;;5058225;28;20198;-57
2021/01/04 00:31:56;;;;;;;13.07;7.23;;;2.00;99.90;;;;;;5058617;28;20296;-57
2021/01/04 00:34:26;;;;;;;15.20;7.63;;;1.90;99.90;;;;;;5056891;28;20202;-57
2021/01/04 00:37:12;;;;;;;15.57;6.90;;;1.90;99.90;;;;;;5052103;28;20206;-56
2021/01/04 00:39:51;;;;;;;16.80;8.27;;;1.90;99.90;;;;;;5051207;28;20231;-56
2021/01/04 00:42:31;;;;;;;12.63;6.53;;;2.00;99.90;;;;;;5056476;28;20206;-59
2021/01/04 00:45:06;;;;;;;14.23;7.53;;;2.00;99.90;;;;;;5052939;28;20323;-58
2021/01/04 00:47:42;;;;;;;15.37;7.57;;;2.00;99.90;;;;;;5053725;28;20271;-57
2021/01/04 00:50:22;;;;;;;11.50;6.03;;;2.00;99.90;;;;;;5048910;28;20209;-57
2021/01/04 00:53:00;;;;;;;14.60;6.67;;;2.00;99.90;;;;;;5059452;28;20964;-55
2021/01/04 00:55:43;;;;;;;13.07;7.27;;;2.00;99.90;;;;;;5054442;28;20206;-57
2021/01/04 00:58:31;;;;;;;12.87;6.27;;;2.00;99.90;;;;;;5050056;28;20309;-56
2021/01/04 01:01:04;;;;;;;14.20;7.07;;;2.00;99.90;;;;;;5052133;28;21588;-55
2021/01/04 01:03:52;;;;;;;13.90;7.30;;;2.00;99.90;;;;;;5052322;28;20227;-56
2021/01/04 01:06:25;;;;;;;12.33;6.43;;;2.00;99.90;;;;;;5052399;28;20921;-57
2021/01/04 01:08:55;;;;;;;11.20;6.13;;;2.00;99.90;;;;;;5050208;28;20230;-58
2021/01/04 01:11:38;;;;;;;15.60;7.57;;;2.00;99.90;;;;;;5054122;28;20289;-54
2021/01/04 01:14:12;;;;;;;16.27;7.57;;;2.00;99.90;;;;;;5050413;28;20609;-56
2021/01/04 01:17:19;;;;;;;14.80;7.47;;;2.00;99.90;;;;;;5052705;28;20204;-60
2021/01/04 01:19:49;;;;;;;11.80;6.37;;;2.00;99.90;;;;;;5052169;28;20214;-56
2021/01/04 01:22:22;;;;;;;14.27;7.57;;;2.00;99.90;;;;;;5054448;28;20230;-55
2021/01/04 01:24:50;;;;;;;15.07;7.60;;;2.00;99.90;;;;;;5050898;28;20650;-52
2021/01/04 01:27:46;;;;;;;13.80;6.73;;;2.00;99.90;;;;;;5051355;28;20229;-57
2021/01/04 01:30:42;;;;;;;12.23;5.93;;;1.90;99.90;;;;;;5053156;28;20207;-54
2021/01/04 01:33:38;;;;;;;12.50;6.50;;;1.90;99.90;;;;;;5055917;28;20586;-56
2021/01/04 01:36:14;;;;;;;13.97;7.20;;;2.00;99.90;;;;;;5022184;28;20692;-58
2021/01/04 01:39:14;;;;;;;14.00;7.27;;;1.90;99.90;;;;;;5051929;28;20234;-53
2021/01/04 01:42:15;;;;;;;13.97;6.90;;;1.90;99.90;;;;;;5052190;28;20195;-53
2021/01/04 01:44:47;;;;;;;13.73;6.97;;;1.90;99.90;;;;;;5050607;28;20226;-58
2021/01/04 01:47:22;;;;;;;12.60;6.73;;;1.90;99.90;;;;;;5054854;28;20226;-57
2021/01/04 01:50:07;;;;;;;10.90;6.20;;;1.80;99.90;;;;;;5054299;28;20623;-55
2021/01/04 01:52:54;;;;;;;13.93;7.47;;;1.80;99.90;;;;;;5054308;28;20210;-57
2021/01/04 01:55:42;;;;;;;13.80;6.30;;;1.80;99.90;;;;;;5053293;28;20840;-55
2021/01/04 01:58:56;;;;;;;13.00;6.53;;;1.80;99.90;;;;;;5051593;28;20231;-55
2021/01/04 02:01:33;;;;;;;13.60;6.87;;;1.80;99.90;;;;;;5050763;28;20256;-55
2021/01/04 02:04:03;;;;;;;13.30;6.30;;;1.90;99.90;;;;;;5054759;28;20290;-58
2021/01/04 02:06:47;;;;;;;14.10;7.27;;;1.90;99.90;;;;;;5054109;28;20207;-52
2021/01/04 02:09:17;;;;;;;10.00;5.10;;;1.90;99.90;;;;;;5055047;28;20758;-55
2021/01/04 02:11:54;;;;;;;14.30;7.13;;;1.90;99.90;;;;;;5056155;28;20202;-52
2021/01/04 02:14:27;;;;;;;13.27;6.93;;;1.90;99.90;;;;;;5057843;28;20198;-58
2021/01/04 02:17:17;;;;;;;11.13;6.00;;;1.90;99.90;;;;;;5056733;28;20206;-55
2021/01/04 02:20:13;;;;;;;12.00;6.50;;;2.00;99.90;;;;;;5053511;28;20890;-57
2021/01/04 02:22:59;;;;;;;10.27;4.93;;;2.00;99.90;;;;;;5058282;28;20203;-57
2021/01/04 02:25:31;;;;;;;13.60;6.20;;;2.00;99.90;;;;;;5051880;28;20218;-56
2021/01/04 02:28:04;;;;;;;13.87;6.47;;;2.10;99.90;;;;;;5057100;28;20218;-52
2021/01/04 02:30:30;;;;;;;11.47;5.00;;;2.00;99.90;;;;;;5055789;28;20691;-55
2021/01/04 02:32:57;;;;;;;13.20;6.83;;;1.90;99.90;;;;;;5053156;28;20421;-60
2021/01/04 02:35:24;;;;;;;12.00;6.33;;;1.90;99.90;;;;;;5055384;28;20210;-55
2021/01/04 02:37:52;;;;;;;9.30;5.13;;;1.90;99.90;;;;;;5053100;28;20227;-56
2021/01/04 02:40:19;;;;;;;11.57;6.30;;;1.90;99.90;;;;;;5055186;28;20723;-57
2021/01/04 02:42:49;;;;;;;10.30;5.57;;;1.80;99.90;;;;;;5053914;28;20657;-55
2021/01/04 02:45:19;;;;;;;10.53;5.87;;;1.80;99.90;;;;;;5056170;28;20198;-57
2021/01/04 02:48:10;;;;;;;11.37;5.83;;;1.80;99.90;;;;;;5063526;28;20238;-54
2021/01/04 02:50:45;;;;;;;13.67;6.63;;;1.80;99.90;;;;;;5064995;28;20272;-56
2021/01/04 02:53:48;;;;;;;11.10;6.10;;;1.70;99.90;;;;;;5068565;28;20202;-57
2021/01/04 02:56:48;;;;;;;11.93;6.17;;;1.70;99.90;;;;;;5067316;28;20289;-53
2021/01/04 02:59:44;;;;;;;14.20;6.37;;;1.70;99.90;;;;;;5058221;28;20211;-53
2021/01/04 03:02:15;;;;;;;9.63;6.13;;;1.60;99.90;;;;;;5067060;28;20307;-57
2021/01/04 03:04:42;;;;;;;12.60;6.07;;;1.60;99.90;;;;;;5065526;28;20219;-55
2021/01/04 03:07:12;;;;;;;11.73;6.23;;;1.60;99.90;;;;;;5066258;28;20307;-57
2021/01/04 03:09:43;;;;;;;11.63;6.63;;;1.60;99.90;;;;;;5064868;28;20214;-54
2021/01/04 03:12:13;;;;;;;13.73;7.10;;;1.70;99.90;;;;;;5065661;28;20582;-60
2021/01/04 03:15:14;;;;;;;15.40;7.13;;;1.70;99.90;;;;;;5065453;28;20206;-56
2021/01/04 03:17:54;;;;;;;14.90;7.67;;;1.70;99.90;;;;;;5060201;28;20282;-58
2021/01/04 03:20:23;;;;;;;14.77;7.47;;;1.70;99.90;;;;;;5056522;28;20315;-53
2021/01/04 03:22:50;;;;;;;15.23;7.87;;;1.70;99.90;;;;;;5065056;28;20206;-55
2021/01/04 03:25:21;;;;;;;14.97;7.03;;;1.70;99.90;;;;;;5066292;28;20217;-57
2021/01/04 03:27:48;;;;;;;13.90;7.47;;;1.70;99.90;;;;;;5065411;28;20218;-56
2021/01/04 03:30:16;;;;;;;15.27;7.37;;;1.70;99.90;;;;;;5067798;28;20210;-56
2021/01/04 03:32:43;;;;;;;13.80;8.03;;;1.70;99.90;;;;;;5066489;28;20214;-55
2021/01/04 03:35:10;;;;;;;15.87;7.70;;;1.70;99.90;;;;;;5067803;28;20210;-57
2021/01/04 03:37:36;;;;;;;16.90;7.87;;;1.80;99.90;;;;;;5066013;28;20230;-57
2021/01/04 03:40:03;;;;;;;16.17;7.73;;;1.70;99.90;;;;;;5068236;28;20202;-59
2021/01/04 03:42:29;;;;;;;14.07;7.30;;;1.70;99.90;;;;;;5060879;28;20268;-53
2021/01/04 03:44:56;;;;;;;14.83;7.20;;;1.70;99.90;;;;;;5067429;28;20221;-53
2021/01/04 03:47:23;;;;;;;13.77;7.33;;;1.70;99.90;;;;;;5060832;28;20934;-55
2021/01/04 03:49:49;;;;;;;14.60;7.43;;;1.70;99.90;;;;;;5063044;28;20229;-56
2021/01/04 03:52:16;;;;;;;17.00;7.90;;;1.70;99.90;;;;;;5064230;28;20213;-53
2021/01/04 03:54:43;;;;;;;15.77;8.20;;;1.70;99.90;;;;;;5063625;28;20665;-59
2021/01/04 03:57:09;;;;;;;18.13;8.77;;;1.70;99.90;;;;;;5055576;28;20222;-54
2021/01/04 03:59:35;;;;;;;15.37;8.50;;;1.70;99.90;;;;;;5066676;28;20198;-54
2021/01/04 04:02:03;;;;;;;16.77;8.37;;;1.70;99.90;;;;;;5064774;28;20203;-56
2021/01/04 04:04:31;;;;;;;15.17;7.23;;;1.70;99.90;;;;;;5066701;28;20226;-57
2021/01/04 04:06:57;;;;;;;17.57;8.17;;;1.70;99.90;;;;;;5064023;28;20210;-57
2021/01/04 04:09:24;;;;;;;17.27;9.13;;;1.70;99.90;;;;;;5065842;28;20267;-54
2021/01/04 04:11:51;;;;;;;20.27;9.13;;;1.70;99.90;;;;;;5066520;28;20205;-57
2021/01/04 04:14:18;;;;;;;16.77;8.03;;;1.80;99.90;;;;;;5065054;28;20207;-53
2021/01/04 04:16:44;;;;;;;16.90;8.67;;;1.70;99.90;;;;;;5066154;28;20201;-57
2021/01/04 04:19:12;;;;;;;17.10;8.43;;;1.80;99.90;;;;;;5066494;28;20210;-54
2021/01/04 04:21:39;;;;;;;17.03;8.20;;;1.80;99.90;;;;;;5066161;28;20202;-55
2021/01/04 04:24:07;;;;;;;20.30;8.80;;;1.80;99.90;;;;;;5065778;28;20226;-53
2021/01/04 04:26:33;;;;;;;19.57;9.63;;;1.80;99.90;;;;;;5066078;28;20207;-57
2021/01/04 04:28:59;;;;;;;17.00;8.67;;;1.80;99.90;;;;;;5066242;28;20314;-56
2021/01/04 04:31:26;;;;;;;18.53;8.93;;;1.80;99.90;;;;;;5064461;28;20206;-53
2021/01/04 04:33:53;;;;;;;19.93;10.03;;;1.80;99.90;;;;;;5056881;28;20204;-57
2021/01/04 04:36:21;;;;;;;19.67;8.73;;;1.90;99.90;;;;;;5063860;28;20210;-57
2021/01/04 04:38:49;;;;;;;20.83;10.23;;;1.90;99.90;;;;;;5056947;28;20229;-54
2021/01/04 04:41:24;;;;;;;21.87;9.93;;;1.90;99.90;;;;;;5063836;28;20584;-59
2021/01/04 04:44:00;;;;;;;21.03;10.03;;;2.00;99.90;;;;;;5060428;28;20218;-58
2021/01/04 04:46:37;;;;;;;20.63;10.90;;;2.00;99.90;;;;;;5062263;28;20210;-56
2021/01/04 04:49:10;;;;;;;21.80;10.43;;;2.00;99.90;;;;;;5064810;28;20230;-57
2021/01/04 04:51:56;;;;;;;22.17;9.97;;;2.00;99.90;;;;;;5060787;28;20249;-56
2021/01/04 04:54:59;;;;;;;22.20;9.97;;;2.10;99.90;;;;;;5065796;28;20202;-56
2021/01/04 04:57:57;;;;;;;20.40;10.13;;;2.10;99.90;;;;;;5065362;28;20216;-56
2021/01/04 05:00:50;;;;;;;21.17;9.77;;;2.10;99.90;;;;;;5062617;28;20275;-60
2021/01/04 05:03:33;;;;;;;21.73;10.03;;;2.20;99.90;;;;;;5064560;28;20222;-55
2021/01/04 05:06:12;;;;;;;23.60;9.53;;;2.20;99.90;;;;;;5063285;28;20255;-58
2021/01/04 05:08:54;;;;;;;26.10;10.53;;;2.20;99.90;;;;;;5061783;28;20568;-58
2021/01/04 05:11:28;;;;;;;20.37;9.83;;;2.20;99.90;;;;;;5063595;28;20230;-58
2021/01/04 05:13:57;;;;;;;19.03;8.77;;;2.20;99.90;;;;;;5064220;28;20198;-59
2021/01/04 05:16:35;;;;;;;21.43;10.33;;;2.30;99.90;;;;;;5065511;28;20839;-57
2021/01/04 05:19:38;;;;;;;23.30;11.47;;;2.30;99.90;;;;;;5064468;28;20222;-58
2021/01/04 05:22:48;;;;;;;23.60;10.63;;;2.30;99.90;;;;;;5058561;28;20262;-55
2021/01/04 05:25:30;;;;;;;24.53;11.03;;;2.50;99.90;;;;;;4978189;28;20224;-58
2021/01/04 05:28:38;;;;;;;25.10;10.93;;;2.30;99.90;;;;;;5045226;28;20713;-56
2021/01/04 05:31:19;;;;;;;25.27;10.83;;;2.30;99.90;;;;;;5043726;28;20210;-57
2021/01/04 05:34:01;;;;;;;20.97;9.70;;;2.30;99.90;;;;;;5066170;28;20199;-58
2021/01/04 05:36:58;;;;;;;16.73;7.47;;;2.30;99.90;;;;;;5065852;28;20207;-58
2021/01/04 05:39:35;;;;;;;21.73;11.07;;;2.30;99.90;;;;;;5041283;28;20672;-54
2021/01/04 05:42:27;;;;;;;21.10;9.83;;;2.30;99.90;;;;;;5065214;28;20209;-53
2021/01/04 05:45:02;;;;;;;20.53;10.20;;;2.30;99.90;;;;;;5066143;28;20236;-54
2021/01/04 05:47:35;;;;;;;20.73;10.13;;;2.40;99.90;;;;;;5060794;28;20225;-55
2021/01/04 05:50:13;;;;;;;25.07;11.03;;;2.30;99.90;;;;;;5065413;28;20202;-55
2021/01/04 05:52:39;;;;;;;22.90;9.70;;;2.40;99.90;;;;;;5056508;28;20676;-54
2021/01/04 05:55:07;;;;;;;19.67;9.93;;;2.30;99.90;;;;;;5063367;28;20205;-56
2021/01/04 05:57:44;;;;;;;19.90;9.67;;;2.40;99.90;;;;;;5063881;28;20210;-56
2021/01/04 06:00:13;;;;;;;20.87;8.97;;;2.40;99.90;;;;;;5066240;28;20761;-58
2021/01/04 06:02:39;;;;;;;19.97;9.33;;;2.40;99.90;;;;;;5064959;28;20235;-57
2021/01/04 06:05:08;;;;;;;20.80;9.00;;;2.30;99.90;;;;;;5063803;28;20226;-60
2021/01/04 06:07:36;;;;;;;21.57;9.43;;;2.40;99.90;;;;;;5064992;28;20225;-58
2021/01/04 06:10:02;;;;;;;19.80;9.03;;;2.40;99.90;;;;;;5064182;28;20208;-56
2021/01/04 06:12:39;;;;;;;17.30;8.40;;;2.40;99.90;;;;;;5065700;28;20206;-58
2021/01/04 06:15:09;;;;;;;18.93;8.77;;;2.40;99.90;;;;;;5061792;28;20677;-57
2021/01/04 06:17:38;;;;;;;17.87;7.87;;;2.40;99.90;;;;;;5064477;28;20226;-56
2021/01/04 06:20:20;;;;;;;18.80;9.27;;;2.40;99.90;;;;;;5065310;28;20590;-57
2021/01/04 06:22:49;;;;;;;18.73;8.23;;;2.40;99.90;;;;;;5063858;28;20252;-56
2021/01/04 06:25:18;;;;;;;18.10;8.73;;;2.40;99.90;;;;;;5065163;28;20222;-57
2021/01/04 06:27:46;;;;;;;16.50;7.63;;;2.40;99.90;;;;;;5064004;28;20595;-57
2021/01/04 06:30:24;;;;;;;18.10;8.87;;;2.40;99.90;;;;;;5064709;28;20757;-55
2021/01/04 06:32:53;;;;;;;19.70;8.53;;;2.40;99.90;;;;;;5062336;28;20206;-59
2021/01/04 06:35:25;;;;;;;18.10;8.40;;;2.40;99.90;;;;;;5064610;28;20248;-57
2021/01/04 06:38:04;;;;;;;20.37;8.93;;;2.40;99.90;;;;;;5064337;28;20715;-58
2021/01/04 06:40:34;;;;;;;20.13;8.97;;;2.40;99.90;;;;;;5063433;28;20222;-56
2021/01/04 06:43:10;;;;;;;15.10;7.43;;;2.40;99.90;;;;;;5065341;28;20211;-55
2021/01/04 06:45:46;;;;;;;16.27;8.40;;;2.40;99.90;;;;;;5063868;28;20551;-55
2021/01/04 06:48:17;;;;;;;14.47;7.10;;;2.40;99.90;;;;;;5065253;28;20224;-55
2021/01/04 06:51:02;;;;;;;15.83;7.47;;;2.40;99.90;;;;;;5064350;28;20210;-55
2021/01/04 06:53:53;;;;;;;17.40;7.93;;;2.40;99.90;;;;;;5064913;28;20751;-55
2021/01/04 06:56:50;;;;;;;17.47;8.57;;;2.40;99.90;;;;;;5065568;28;20210;-56
2021/01/04 06:59:46;;;;;;;15.27;7.90;;;2.40;99.90;;;;;;5067563;28;20195;-55
2021/01/04 07:02:43;;;;;;;19.37;8.97;;;2.50;99.90;;;;;;5068351;28;20213;-58
2021/01/04 07:06:07;;;;;;;15.90;7.67;;;2.40;99.90;;;;;;5062701;28;20229;-55
2021/01/04 07:08:57;;;;;;;18.50;7.60;;;2.50;99.90;;;;;;4985164;28;20224;-52
2021/01/04 07:11:39;;;;;;;16.20;7.43;;;2.50;99.90;;;;;;4986638;28;20508;-54
2021/01/04 07:14:20;;;;;;;13.47;7.30;;;2.40;99.90;;;;;;5044169;28;20692;-56
2021/01/04 07:17:05;;;;;;;15.80;7.53;;;2.40;99.90;;;;;;5066531;28;20567;-57
2021/01/04 07:19:57;;;;;;;16.83;7.77;;;2.50;99.90;;;;;;5064652;28;20597;-55
2021/01/04 07:22:37;;;;;;;17.47;6.57;;;2.50;99.90;;;;;;5056831;28;20712;-55
2021/01/04 07:25:13;;;;;;;13.33;6.53;;;2.40;99.90;;;;;;5063678;28;20252;-53
2021/01/04 07:27:50;;;;;;;13.47;6.70;;;2.50;99.90;;;;;;5067798;28;20482;-55
2021/01/04 07:30:31;;;;;;;12.77;6.33;;;2.50;99.90;;;;;;5067186;28;20206;-58
2021/01/04 07:33:04;;;;;;;16.30;6.90;;;2.40;99.90;;;;;;5067838;28;20251;-55
2021/01/04 07:35:36;;;;;;;12.00;6.60;;;2.50;99.90;;;;;;5067734;28;20259;-57
2021/01/04 07:38:31;;;;;;;13.43;6.47;;;2.40;99.90;;;;;;5065035;28;20253;-54
2021/01/04 07:41:11;;;;;;;13.07;6.10;;;2.50;99.90;;;;;;5065858;28;20688;-57
2021/01/04 07:44:15;;;;;;;12.03;5.87;;;2.50;99.90;;;;;;5062880;28;20232;-58
2021/01/04 07:47:13;;;;;;;11.77;6.30;;;2.50;99.90;;;;;;5062211;28;20587;-58
2021/01/04 07:50:12;;;;;;;14.13;6.30;;;2.50;99.90;;;;;;5064595;28;20543;-53
2021/01/04 07:53:19;;;;;;;12.00;5.73;;;2.50;99.90;;;;;;5067669;28;20210;-58
2021/01/04 07:56:21;;;;;;;13.33;6.57;;;2.50;99.90;;;;;;5067118;28;20635;-54
2021/01/04 07:59:18;;;;;;;11.47;5.83;;;2.50;99.90;;;;;;5067977;28;20229;-54
2021/01/04 08:02:20;;;;;;;13.33;6.40;;;2.40;99.90;;;;;;5047194;28;20271;-53
2021/01/04 08:05:23;;;;;;;13.43;6.23;;;2.50;99.90;;;;;;5066244;28;20305;-58
2021/01/04 08:08:13;;;;;;;12.20;5.60;;;2.50;99.90;;;;;;5060672;28;20228;-59
2021/01/04 08:11:02;;;;;;;9.83;4.80;;;2.40;99.90;;;;;;5067001;28;20630;-61
2021/01/04 08:13:59;;;;;;;12.27;6.10;;;2.40;99.90;;;;;;5062980;28;20267;-58
2021/01/04 08:16:29;;;;;;;11.90;5.00;;;2.40;99.90;;;;;;5058533;28;20206;-57
2021/01/04 08:18:59;;;;;;;11.50;6.13;;;2.40;99.90;;;;;;5065237;28;20218;-57
2021/01/04 08:21:33;;;;;;;10.90;5.87;;;2.50;99.90;;;;;;5064587;28;20722;-59
2021/01/04 08:24:09;;;;;;;9.97;5.60;;;2.50;99.90;;;;;;5064007;28;20225;-58
2021/01/04 08:26:47;;;;;;;10.57;6.20;;;2.40;99.90;;;;;;5065882;28;20206;-53
2021/01/04 08:29:30;;;;;;;12.03;5.33;;;2.50;99.90;;;;;;5065891;28;20210;-58
2021/01/04 08:32:05;;;;;;;11.03;6.10;;;2.50;99.90;;;;;;5066830;28;20206;-57
2021/01/04 08:34:39;;;;;;;13.97;6.70;;;2.50;99.90;;;;;;5055926;28;20207;-58
2021/01/04 08:37:05;;;;;;;11.90;6.33;;;2.50;99.90;;;;;;5055615;28;20227;-57
2021/01/04 08:39:37;;;;;;;10.70;5.40;;;2.50;99.90;;;;;;5062771;28;20210;-55
2021/01/04 08:42:26;;;;;;;9.67;5.80;;;2.50;99.90;;;;;;5067643;28;20202;-55
2021/01/04 08:44:56;;;;;;;10.27;5.30;;;2.50;99.90;;;;;;5063072;28;20229;-59
2021/01/04 08:47:32;;;;;;;11.77;5.83;;;2.50;99.90;;;;;;5066706;28;20546;-53
2021/01/04 08:50:09;;;;;;;8.37;4.60;;;2.50;99.90;;;;;;5066429;28;20202;-56
2021/01/04 08:52:41;;;;;;;12.13;6.00;;;2.50;99.90;;;;;;5060721;28;20210;-57
2021/01/04 08:55:08;;;;;;;11.47;5.20;;;2.50;99.90;;;;;;5065872;28;20233;-57
2021/01/04 08:57:42;;;;;;;10.27;6.00;;;2.50;99.90;;;;;;5065804;28;20256;-59
2021/01/04 09:00:19;;;;;;;10.20;5.93;;;2.50;99.90;;;;;;5066809;28;20660;-59
2021/01/04 09:02:47;;;;;;;9.30;5.30;;;2.50;99.90;;;;;;5065781;28;20672;-56
2021/01/04 09:05:15;;;;;;;8.67;5.30;;;2.50;99.90;;;;;;5066506;28;20756;-56
2021/01/04 09:07:49;;;;;;;8.80;5.07;;;2.50;99.90;;;;;;5053630;28;20225;-54
2021/01/04 09:10:19;;;;;;;10.73;5.73;;;2.50;99.90;;;;;;5065481;28;20213;-56
2021/01/04 09:12:50;;;;;;;10.47;5.50;;;2.50;99.90;;;;;;5066497;28;20206;-57
2021/01/04 09:15:31;;;;;;;7.97;5.10;;;2.40;99.90;;;;;;5065689;28;20661;-55
2021/01/04 09:18:20;;;;;;;10.10;5.47;;;2.50;99.90;;;;;;5063672;28;20307;-56
2021/01/04 09:20:52;;;;;;;9.23;5.60;;;2.50;99.90;;;;;;5063250;28;21079;-60
2021/01/04 09:23:31;;;;;;;8.90;4.83;;;2.40;99.90;;;;;;5066133;28;20396;-54
2021/01/04 09:26:10;;;;;;;10.30;4.83;;;2.40;99.90;;;;;;5066743;28;20212;-53
2021/01/04 09:28:40;;;;;;;9.33;4.87;;;2.40;99.90;;;;;;5065465;28;20225;-56
2021/01/04 09:31:08;;;;;;;7.57;4.47;;;2.40;99.90;;;;;;5065345;28;20420;-59
2021/01/04 09:33:44;;;;;;;9.00;5.20;;;2.40;99.90;;;;;;5055338;28;20576;-54
2021/01/04 09:36:11;;;;;;;12.17;5.73;;;2.40;99.90;;;;;;5064969;28;20677;-55
2021/01/04 09:38:38;;;;;;;8.07;4.33;;;2.40;99.90;;;;;;5063190;28;20221;-59
2021/01/04 09:41:07;;;;;;;7.97;4.70;;;2.40;99.90;;;;;;5064231;28;20213;-57
2021/01/04 09:43:35;;;;;;;9.03;5.60;;;2.40;99.90;;;;;;5064410;28;20209;-59
2021/01/04 09:46:16;;;;;;;10.27;5.40;;;2.40;99.90;;;;;;5065995;28;20210;-57
2021/01/04 09:48:49;;;;;;;11.17;4.93;;;2.40;99.90;;;;;;5065392;28;20226;-53
2021/01/04 09:51:22;;;;;;;10.37;5.97;;;2.40;99.90;;;;;;5065585;28;20209;-56
2021/01/04 09:53:57;;;;;;;9.13;4.60;;;2.40;99.90;;;;;;5066564;28;20202;-54
2021/01/04 09:56:28;;;;;;;9.93;4.97;;;2.50;99.90;;;;;;5062576;28;20206;-55
2021/01/04 09:59:00;;;;;;;10.33;5.33;;;2.40;99.90;;;;;;5064711;28;20655;-56
2021/01/04 10:01:27;;;;;;;8.57;4.90;;;2.40;99.90;;;;;;5059854;28;20262;-56
2021/01/04 10:03:55;;;;;;;11.47;5.40;;;2.40;99.90;;;;;;5056571;28;20608;-57
2021/01/04 10:06:22;;;;;;;9.83;4.70;;;2.30;99.90;;;;;;5064391;28;20210;-55
2021/01/04 10:08:50;;;;;;;8.70;4.80;;;2.30;99.90;;;;;;5059160;28;20222;-56
2021/01/04 10:11:19;;;;;;;9.90;5.20;;;2.30;99.90;;;;;;5064202;28;20676;-56
2021/01/04 10:13:46;;;;;;;9.50;5.07;;;2.30;99.90;;;;;;5059105;28;20206;-54
2021/01/04 10:16:20;;;;;;;9.20;4.70;;;2.30;99.90;;;;;;5065123;28;20206;-58
2021/01/04 10:18:52;;;;;;;8.07;4.60;;;2.30;99.90;;;;;;5065514;28;20275;-57
2021/01/04 10:21:22;;;;;;;10.17;5.50;;;2.40;99.90;;;;;;5060708;28;20214;-58
2021/01/04 10:23:53;;;;;;;7.47;4.70;;;2.40;99.90;;;;;;5061011;28;20644;-54
2021/01/04 10:26:21;;;;;;;7.20;4.37;;;2.50;99.90;;;;;;5064091;28;20206;-56
2021/01/04 10:28:48;;;;;;;7.53;4.47;;;2.40;99.90;;;;;;5062069;28;20233;-54
2021/01/04 10:31:21;;;;;;;8.47;4.50;;;2.40;99.90;;;;;;5058339;28;20290;-57
2021/01/04 10:33:49;;;;;;;8.07;4.40;;;2.40;99.90;;;;;;5069389;28;20243;-54
2021/01/04 10:36:21;;;;;;;7.17;4.20;;;2.50;99.90;;;;;;5067930;28;20206;-53
2021/01/04 10:39:04;;;;;;;8.03;4.40;;;2.40;99.90;;;;;;5069395;28;20279;-60
2021/01/04 10:41:35;;;;;;;8.37;4.33;;;2.40;99.90;;;;;;5067718;28;20207;-58
2021/01/04 10:44:07;;;;;;;7.60;4.67;;;2.40;99.90;;;;;;5069316;28;20222;-59
2021/01/04 10:46:37;;;;;;;8.77;4.90;;;2.40;99.90;;;;;;5069191;28;20225;-56
2021/01/04 10:49:07;;;;;;;7.33;4.50;;;2.50;99.90;;;;;;5068949;28;20233;-55
2021/01/04 10:51:37;;;;;;;11.00;5.07;;;2.40;99.90;;;;;;5068190;28;20237;-56
2021/01/04 10:54:15;;;;;;;7.90;4.77;;;2.50;99.90;;;;;;5069674;28;20210;-57
2021/01/04 10:56:45;;;;;;;7.93;4.97;;;2.50;99.90;;;;;;5064447;28;20289;-57
2021/01/04 10:59:22;;;;;;;8.87;4.80;;;2.50;99.90;;;;;;5062676;28;20263;-55
2021/01/04 11:01:51;;;;;;;9.10;4.90;;;2.50;99.90;;;;;;5062778;28;20468;-56
2021/01/04 11:04:20;;;;;;;9.87;4.83;;;2.50;99.90;;;;;;5060082;28;20268;-57
2021/01/04 11:06:59;;;;;;;7.83;5.00;;;2.50;99.90;;;;;;5060419;28;20202;-60
2021/01/04 11:09:28;;;;;;;7.57;4.20;;;2.50;99.90;;;;;;5061312;28;20293;-58
2021/01/04 11:12:07;;;;;;;7.87;4.50;;;2.50;99.90;;;;;;5060844;28;20245;-55
2021/01/04 11:14:33;;;;;;;8.13;4.80;;;2.50;99.90;;;;;;5064234;28;20292;-57
2021/01/04 11:17:10;;;;;;;7.03;4.50;;;2.60;99.90;;;;;;5068169;28;20202;-55
2021/01/04 11:19:38;;;;;;;8.07;4.70;;;2.50;99.90;;;;;;5063985;28;20207;-56
2021/01/04 11:22:10;;;;;;;7.40;4.73;;;2.40;99.90;;;;;;5068769;28;20802;-58
2021/01/04 11:24:36;;;;;;;7.63;4.73;;;2.50;99.90;;;;;;5066665;28;20222;-59
2021/01/04 11:27:02;;;;;;;8.27;4.50;;;2.50;99.90;;;;;;5065756;28;20672;-59
2021/01/04 11:29:29;;;;;;;8.40;4.97;;;2.40;99.90;;;;;;5066834;28;20214;-56
2021/01/04 11:31:55;;;;;;;7.97;4.40;;;2.40;99.90;;;;;;5067775;28;20203;-61
2021/01/04 11:34:21;;;;;;;8.17;4.80;;;2.30;99.90;;;;;;5065010;28;20301;-60
2021/01/04 11:36:49;;;;;;;10.77;5.63;;;2.30;99.90;;;;;;5058210;28;20203;-60
2021/01/04 11:39:16;;;;;;;8.77;4.60;;;2.40;99.90;;;;;;5062860;28;20857;-61
2021/01/04 11:41:43;;;;;;;11.23;5.83;;;2.30;99.90;;;;;;5060393;28;20257;-60
2021/01/04 11:44:09;;;;;;;8.73;4.80;;;2.20;99.90;;;;;;5064573;28;21003;-61
2021/01/04 11:46:36;;;;;;;10.60;5.23;;;2.10;99.90;;;;;;5057150;28;20210;-61
2021/01/04 11:49:03;;;;;;;10.00;5.30;;;2.10;99.90;;;;;;5065755;28;20230;-61
2021/01/04 11:51:30;;;;;;;8.23;4.70;;;2.10;99.90;;;;;;5067324;28;20210;-61
2021/01/04 11:53:57;;;;;;;11.57;5.03;;;2.10;99.90;;;;;;5066560;28;20202;-61
2021/01/04 11:56:25;;;;;;;7.93;4.37;;;2.20;99.90;;;;;;5065915;28;20210;-61
2021/01/04 11:58:51;;;;;;;8.47;4.63;;;2.20;99.90;;;;;;5067078;28;20608;-62
2021/01/04 12:01:18;;;;;;;8.50;4.67;;;2.20;99.90;;;;;;5066408;28;20221;-60
2021/01/04 12:03:45;;;;;;;7.23;4.30;;;2.30;99.90;;;;;;5066490;28;20240;-62
2021/01/04 12:06:12;;;;;;;10.87;5.83;;;2.50;99.90;;;;;;5066643;28;20290;-60
2021/01/04 12:08:39;;;;;;;9.10;4.57;;;2.80;99.90;;;;;;5064619;28;20219;-62
2021/01/04 12:11:07;;;;;;;9.40;5.23;;;2.40;99.90;;;;;;5059236;28;20238;-59
2021/01/04 12:13:33;;;;;;;9.70;5.00;;;2.40;99.90;;;;;;5056773;28;20331;-61
2021/01/04 12:15:59;;;;;;;9.73;5.57;;;2.30;99.90;;;;;;5051350;28;20252;-59
2021/01/04 12:18:26;;;;;;;10.77;5.20;;;2.30;99.90;;;;;;5053043;28;20596;-60
2021/01/04 12:20:53;;;;;;;9.03;5.10;;;2.60;99.90;;;;;;5054969;28;20857;-58
2021/01/04 12:23:19;;;;;;;8.20;5.03;;;2.20;99.90;;;;;;5065266;28;20210;-61
2021/01/04 12:25:46;;;;;;;7.30;4.40;;;2.30;99.90;;;;;;5065083;28;20226;-60
2021/01/04 12:28:13;;;;;;;9.23;4.77;;;2.20;99.90;;;;;;5065344;28;22182;-61
2021/01/04 12:30:40;;;;;;;10.50;5.20;;;2.30;99.90;;;;;;5065756;28;20623;-58
2021/01/04 12:33:06;;;;;;;7.63;4.47;;;2.30;99.90;;;;;;5062878;28;20202;-60
2021/01/04 12:35:34;;;;;;;7.53;4.43;;;2.30;99.90;;;;;;5065765;28;20709;-61
2021/01/04 12:38:01;;;;;;;8.57;4.27;;;2.20;99.90;;;;;;5065399;28;20232;-60
2021/01/04 12:40:30;;;;;;;8.13;5.40;;;2.20;99.90;;;;;;5066370;28;20325;-61
2021/01/04 12:42:57;;;;;;;8.60;4.63;;;2.20;99.90;;;;;;5060763;28;20211;-59
2021/01/04 12:45:25;;;;;;;7.70;4.63;;;2.10;99.90;;;;;;5065635;28;20226;-61
2021/01/04 12:47:51;;;;;;;10.13;5.00;;;2.20;99.90;;;;;;5061614;28;20237;-61
2021/01/04 12:50:18;;;;;;;8.03;4.33;;;2.20;99.90;;;;;;5065071;28;20255;-60
2021/01/04 12:52:44;;;;;;;7.13;4.17;;;2.10;99.90;;;;;;5064204;28;20206;-61
2021/01/04 12:55:12;;;;;;;7.13;4.23;;;2.20;99.90;;;;;;5065188;28;20201;-58
2021/01/04 12:57:38;;;;;;;9.10;4.53;;;2.20;99.90;;;;;;5061649;28;20312;-61
2021/01/04 13:00:07;;;;;;;9.20;5.10;;;2.20;99.90;;;;;;5059641;28;20213;-62
2021/01/04 13:02:34;;;;;;;7.90;4.67;;;2.20;99.90;;;;;;5059677;28;20285;-61
2021/01/04 13:05:01;;;;;;;6.70;4.10;;;2.30;99.90;;;;;;5062691;28;20220;-61
2021/01/04 13:07:28;;;;;;;8.30;4.57;;;2.20;99.90;;;;;;5053738;28;20507;-59
2021/01/04 13:09:55;;;;;;;7.90;4.40;;;2.20;99.90;;;;;;5056772;28;20209;-58
2021/01/04 13:12:22;;;;;;;6.20;4.10;;;2.20;99.90;;;;;;5055496;28;20249;-60
2021/01/04 13:14:49;;;;;;;7.70;4.50;;;2.20;99.90;;;;;;5057229;28;20200;-59
2021/01/04 13:17:16;;;;;;;8.37;3.97;;;2.30;99.90;;;;;;5057875;28;20229;-61
2021/01/04 13:19:44;;;;;;;7.07;3.93;;;2.30;99.90;;;;;;5058391;28;20202;-61
2021/01/04 13:22:10;;;;;;;6.80;4.03;;;2.20;99.90;;;;;;5055752;28;20198;-60
2021/01/04 13:24:37;;;;;;;7.57;4.73;;;2.20;99.90;;;;;;5056165;28;20227;-60
2021/01/04 13:27:03;;;;;;;7.87;4.40;;;2.20;99.90;;;;;;5055610;28;20684;-59
2021/01/04 13:29:31;;;;;;;8.10;4.57;;;2.20;99.90;;;;;;5055625;28;20203;-62
2021/01/04 13:32:02;;;;;;;6.90;4.20;;;2.20;99.90;;;;;;5060046;28;20202;-60